createdAt,value
2018-07-19T00:01:13.923Z,8.83
2018-07-19T00:03:42.306Z,10.90
2018-07-19T00:06:10.361Z,10.30
2018-07-19T00:08:38.419Z,10.93
2018-07-19T00:11:06.905Z,9.70
2018-07-19T00:13:35.342Z,9.40
2018-07-19T00:16:03.709Z,8.60
2018-07-19T00:18:32.065Z,9.50
2018-07-19T00:21:00.462Z,9.93
2018-07-19T00:23:28.819Z,9.57
2018-07-19T00:25:58.012Z,12.67
2018-07-19T00:28:26.131Z,9.40
2018-07-19T00:30:54.493Z,9.00
2018-07-19T00:33:23.100Z,9.40
2018-07-19T00:35:51.804Z,9.03
2018-07-19T00:38:20.202Z,9.90
2018-07-19T00:40:48.286Z,9.43
2018-07-19T00:43:16.344Z,9.20
2018-07-19T00:45:44.689Z,12.47
2018-07-19T00:48:13.130Z,11.70
2018-07-19T00:50:41.445Z,8.87
2018-07-19T00:53:09.841Z,8.80
2018-07-19T00:55:38.172Z,8.50
2018-07-19T00:58:06.524Z,8.00
2018-07-19T01:00:34.870Z,7.97
2018-07-19T01:03:03.344Z,7.00
2018-07-19T01:05:31.698Z,7.90
2018-07-19T01:08:00.044Z,7.60
2018-07-19T01:10:28.109Z,7.53
2018-07-19T01:12:56.451Z,7.97
2018-07-19T01:15:25.860Z,6.90
2018-07-19T01:17:55.511Z,7.53
2018-07-19T01:20:23.916Z,8.47
2018-07-19T01:22:52.306Z,8.30
2018-07-19T01:25:20.673Z,7.63
2018-07-19T01:27:48.985Z,7.73
2018-07-19T01:30:17.320Z,8.33
2018-07-19T01:32:45.646Z,8.40
2018-07-19T01:35:15.564Z,8.63
2018-07-19T01:37:43.993Z,8.10
2018-07-19T01:40:12.327Z,9.40
2018-07-19T01:42:41.631Z,8.90
2018-07-19T01:45:10.689Z,11.23
2018-07-19T01:47:39.217Z,9.03
2018-07-19T01:50:08.390Z,9.60
2018-07-19T01:52:36.752Z,9.03
2018-07-19T01:55:05.393Z,9.30
2018-07-19T01:57:33.805Z,10.00
2018-07-19T02:00:02.179Z,10.27
2018-07-19T02:02:30.485Z,9.77
2018-07-19T02:04:58.788Z,9.23
2018-07-19T02:07:27.165Z,9.80
2018-07-19T02:09:55.592Z,8.90
2018-07-19T02:12:23.934Z,9.93
2018-07-19T02:14:52.365Z,8.67
2018-07-19T02:17:20.697Z,9.73
2018-07-19T02:19:49.082Z,12.20
2018-07-19T02:22:17.405Z,11.73
2018-07-19T02:24:45.734Z,8.90
2018-07-19T02:27:14.636Z,9.77
2018-07-19T02:29:43.003Z,10.13
2018-07-19T02:32:11.386Z,10.30
2018-07-19T02:34:39.788Z,8.67
2018-07-19T02:37:08.123Z,9.00
2018-07-19T02:39:36.470Z,12.13
2018-07-19T02:42:04.857Z,8.70
2018-07-19T02:44:33.767Z,9.67
2018-07-19T02:47:02.149Z,11.70
2018-07-19T02:49:30.553Z,10.20
2018-07-19T02:51:58.923Z,12.63
2018-07-19T02:54:27.261Z,9.77
2018-07-19T02:56:55.609Z,9.30
2018-07-19T02:59:23.982Z,9.40
2018-07-19T03:01:52.336Z,9.97
2018-07-19T03:04:20.669Z,9.87
2018-07-19T03:06:48.978Z,10.63
2018-07-19T03:09:17.303Z,11.43
2018-07-19T03:11:45.647Z,10.43
2018-07-19T03:14:13.957Z,9.90
2018-07-19T03:16:42.283Z,9.40
2018-07-19T03:19:10.665Z,9.53
2018-07-19T03:21:39.036Z,11.10
2018-07-19T03:24:07.378Z,10.20
2018-07-19T03:26:35.764Z,9.50
2018-07-19T03:29:04.141Z,9.00
2018-07-19T03:31:32.502Z,11.03
2018-07-19T03:34:00.849Z,10.83
2018-07-19T03:36:29.200Z,10.30
2018-07-19T03:38:57.532Z,11.13
2018-07-19T03:41:25.879Z,10.17
2018-07-19T03:43:54.202Z,9.10
2018-07-19T03:46:22.521Z,9.00
2018-07-19T03:48:50.840Z,9.50
2018-07-19T03:51:19.187Z,8.83
2018-07-19T03:53:47.538Z,9.20
2018-07-19T03:56:15.906Z,11.17
2018-07-19T03:58:44.231Z,9.80
2018-07-19T04:01:12.563Z,8.93
2018-07-19T04:03:40.984Z,8.93
2018-07-19T04:06:09.377Z,8.97
2018-07-19T04:08:37.797Z,8.77
2018-07-19T04:11:06.246Z,10.20
2018-07-19T04:13:34.638Z,10.83
2018-07-19T04:16:03.034Z,9.37
2018-07-19T04:18:31.426Z,9.23
2018-07-19T04:20:59.787Z,10.50
2018-07-19T04:23:28.188Z,8.50
2018-07-19T04:25:56.252Z,10.00
2018-07-19T04:28:24.606Z,10.17
2018-07-19T04:30:52.957Z,11.37
2018-07-19T04:33:21.330Z,18.33
2018-07-19T04:35:49.710Z,10.87
2018-07-19T04:38:18.098Z,8.80
2018-07-19T04:40:46.450Z,10.00
2018-07-19T04:43:14.816Z,9.17
2018-07-19T04:45:43.215Z,9.40
2018-07-19T04:48:11.802Z,9.87
2018-07-19T04:50:40.307Z,9.77
2018-07-19T04:53:08.644Z,9.90
2018-07-19T04:55:37.017Z,9.20
2018-07-19T04:58:05.516Z,12.30
2018-07-19T05:00:33.947Z,10.37
2018-07-19T05:03:02.285Z,8.73
2018-07-19T05:05:30.649Z,7.97
2018-07-19T05:07:59.035Z,8.27
2018-07-19T05:10:27.395Z,12.60
2018-07-19T05:12:55.497Z,10.23
2018-07-19T05:15:23.854Z,8.40
2018-07-19T05:17:52.362Z,11.50
2018-07-19T05:20:20.713Z,7.70
2018-07-19T05:22:49.067Z,7.00
2018-07-19T05:25:17.454Z,8.57
2018-07-19T05:27:45.837Z,7.80
2018-07-19T05:30:14.188Z,7.63
2018-07-19T05:32:42.550Z,8.10
2018-07-19T05:35:10.957Z,7.37
2018-07-19T05:37:39.411Z,8.20
2018-07-19T05:40:07.790Z,7.33
2018-07-19T05:42:36.157Z,7.67
2018-07-19T05:45:04.662Z,7.13
2018-07-19T05:47:33.056Z,8.30
2018-07-19T05:50:01.452Z,6.97
2018-07-19T05:52:29.837Z,6.07
2018-07-19T05:54:58.233Z,7.73
2018-07-19T05:57:26.645Z,11.07
2018-07-19T05:59:55.025Z,7.93
2018-07-19T06:02:23.408Z,6.93
2018-07-19T06:04:51.765Z,6.30
2018-07-19T06:07:20.100Z,6.17
2018-07-19T06:09:48.448Z,5.90
2018-07-19T06:12:17.743Z,6.50
2018-07-19T06:14:46.112Z,5.70
2018-07-19T06:17:14.576Z,5.60
2018-07-19T06:19:42.943Z,6.70
2018-07-19T06:22:11.346Z,6.97
2018-07-19T06:24:39.815Z,5.17
2018-07-19T06:27:08.223Z,5.43
2018-07-19T06:29:36.581Z,5.17
2018-07-19T06:32:05.012Z,6.03
2018-07-19T06:34:33.379Z,5.20
2018-07-19T06:37:01.852Z,7.67
2018-07-19T06:39:30.340Z,5.80
2018-07-19T06:41:58.745Z,6.60
2018-07-19T06:44:27.672Z,4.97
2018-07-19T06:46:56.265Z,5.43
2018-07-19T06:49:24.635Z,4.60
2018-07-19T06:51:52.975Z,4.93
2018-07-19T06:54:21.290Z,4.70
2018-07-19T06:56:49.642Z,4.47
2018-07-19T06:59:17.958Z,5.10
2018-07-19T07:01:46.370Z,5.37
2018-07-19T07:04:14.717Z,4.67
2018-07-19T07:06:43.081Z,4.80
2018-07-19T07:09:12.364Z,4.60
2018-07-19T07:11:41.089Z,6.30
2018-07-19T07:14:09.519Z,5.40
2018-07-19T07:16:37.925Z,4.53
2018-07-19T07:19:06.314Z,5.77
2018-07-19T07:21:34.704Z,4.80
2018-07-19T07:24:03.093Z,6.17
2018-07-19T07:26:31.514Z,11.87
2018-07-19T07:28:59.926Z,4.30
2018-07-19T07:31:28.331Z,4.40
2018-07-19T07:33:56.718Z,4.80
2018-07-19T07:36:25.065Z,4.50
2018-07-19T07:38:53.411Z,4.97
2018-07-19T07:41:21.803Z,4.70
2018-07-19T07:43:50.208Z,4.37
2018-07-19T07:46:18.649Z,4.90
2018-07-19T07:48:47.013Z,5.37
2018-07-19T07:51:15.386Z,4.03
2018-07-19T07:53:43.740Z,8.47
2018-07-19T07:56:12.104Z,4.80
2018-07-19T07:58:40.452Z,4.53
2018-07-19T08:01:08.796Z,6.27
2018-07-19T08:03:37.109Z,4.87
2018-07-19T08:06:05.489Z,4.70
2018-07-19T08:08:33.869Z,4.70
2018-07-19T08:11:02.246Z,4.80
2018-07-19T08:13:30.596Z,6.60
2018-07-19T08:15:58.983Z,3.87
2018-07-19T08:18:27.369Z,5.40
2018-07-19T08:20:55.765Z,6.60
2018-07-19T08:23:24.191Z,5.80
2018-07-19T08:25:52.524Z,7.53
2018-07-19T08:28:20.892Z,5.20
2018-07-19T08:30:49.252Z,6.50
2018-07-19T08:33:18.448Z,4.70
2018-07-19T08:35:46.860Z,9.10
2018-07-19T08:38:15.128Z,5.00
2018-07-19T08:40:43.475Z,5.43
2018-07-19T08:43:11.833Z,7.43
2018-07-19T08:45:40.162Z,6.23
2018-07-19T08:48:08.629Z,7.10
2018-07-19T08:50:36.985Z,5.50
2018-07-19T08:53:05.061Z,6.60
2018-07-19T08:55:33.476Z,5.80
2018-07-19T08:58:01.828Z,4.83
2018-07-19T09:00:30.175Z,6.70
2018-07-19T09:02:58.526Z,6.10
2018-07-19T09:05:26.888Z,5.67
2018-07-19T09:07:55.228Z,8.90
2018-07-19T09:10:23.608Z,5.63
2018-07-19T09:12:51.978Z,8.80
2018-07-19T09:15:20.336Z,6.20
2018-07-19T09:17:48.930Z,5.67
2018-07-19T09:20:17.284Z,5.60
2018-07-19T09:22:45.699Z,7.17
2018-07-19T09:25:14.079Z,5.10
2018-07-19T09:27:42.467Z,8.57
2018-07-19T09:30:10.880Z,6.93
2018-07-19T09:32:39.251Z,5.77
2018-07-19T09:35:07.602Z,6.43
2018-07-19T09:37:35.965Z,5.43
2018-07-19T09:40:04.442Z,6.73
2018-07-19T09:42:32.859Z,8.60
2018-07-19T09:45:01.291Z,5.27
2018-07-19T09:47:29.690Z,9.60
2018-07-19T09:49:58.078Z,5.13
2018-07-19T09:52:26.189Z,6.00
2018-07-19T09:54:57.286Z,5.60
2018-07-19T09:57:25.579Z,7.10
2018-07-19T09:59:53.952Z,5.30
2018-07-19T10:02:22.412Z,5.07
2018-07-19T10:04:50.786Z,6.20
2018-07-19T10:07:19.280Z,5.30
2018-07-19T10:09:47.356Z,4.70
2018-07-19T10:12:15.884Z,7.53
2018-07-19T10:14:44.257Z,6.50
2018-07-19T10:17:12.678Z,4.80
2018-07-19T10:19:41.074Z,6.80
2018-07-19T10:22:09.816Z,7.00
2018-07-19T10:24:38.187Z,5.23
2018-07-19T10:27:06.649Z,5.07
2018-07-19T10:29:35.069Z,5.17
2018-07-19T10:32:03.512Z,5.17
2018-07-19T10:34:32.081Z,5.53
2018-07-19T10:37:00.588Z,5.77
2018-07-19T10:39:28.996Z,4.93
2018-07-19T10:41:57.427Z,5.43
2018-07-19T10:44:25.779Z,7.73
2018-07-19T10:46:54.129Z,9.40
2018-07-19T10:49:22.499Z,7.00
2018-07-19T10:51:50.893Z,5.60
2018-07-19T10:54:19.263Z,5.47
2018-07-19T10:56:47.617Z,5.07
2018-07-19T10:59:15.945Z,7.57
2018-07-19T11:01:44.386Z,5.80
2018-07-19T11:04:12.768Z,4.50
2018-07-19T11:06:41.113Z,9.20
2018-07-19T11:09:10.050Z,5.00
2018-07-19T11:11:38.401Z,5.23
2018-07-19T11:14:06.758Z,5.30
2018-07-19T11:16:35.166Z,4.93
2018-07-19T11:19:03.464Z,4.73
2018-07-19T11:21:31.808Z,5.30
2018-07-19T11:24:00.187Z,4.57
2018-07-19T11:26:28.500Z,5.80
2018-07-19T11:28:56.851Z,7.30
2018-07-19T11:31:25.211Z,4.23
2018-07-19T11:33:53.608Z,5.57
2018-07-19T11:36:21.978Z,4.33
2018-07-19T11:38:50.316Z,5.00
2018-07-19T11:41:18.465Z,5.53
2018-07-19T11:43:46.813Z,4.83
2018-07-19T11:46:15.193Z,10.80
2018-07-19T11:48:43.548Z,6.20
2018-07-19T11:51:11.889Z,5.30
2018-07-19T11:53:40.275Z,6.80
2018-07-19T11:56:08.634Z,9.23
2018-07-19T11:58:36.942Z,4.90
2018-07-19T12:01:05.357Z,5.53
2018-07-19T12:03:33.727Z,4.83
2018-07-19T12:06:02.102Z,6.50
2018-07-19T12:08:30.484Z,4.90
2018-07-19T12:10:58.895Z,5.37
2018-07-19T12:13:27.345Z,4.40
2018-07-19T12:15:55.732Z,10.63
2018-07-19T12:18:24.086Z,4.43
2018-07-19T12:20:52.546Z,4.43
2018-07-19T12:23:21.066Z,4.57
2018-07-19T12:25:49.449Z,6.63
2018-07-19T12:28:17.774Z,5.10
2018-07-19T12:30:46.155Z,7.97
2018-07-19T12:33:14.499Z,5.70
2018-07-19T12:35:42.849Z,5.43
2018-07-19T12:38:11.195Z,4.80
2018-07-19T12:40:39.629Z,4.63
2018-07-19T12:43:08.035Z,4.40
2018-07-19T12:45:36.475Z,4.80
2018-07-19T12:48:04.807Z,6.90
2018-07-19T12:50:33.174Z,4.33
2018-07-19T12:53:01.515Z,4.20
2018-07-19T12:55:29.879Z,4.87
2018-07-19T12:57:58.511Z,4.77
2018-07-19T13:00:26.890Z,8.03
2018-07-19T13:02:55.255Z,4.83
2018-07-19T13:05:23.972Z,4.40
2018-07-19T13:07:52.325Z,4.17
2018-07-19T13:10:20.731Z,4.67
2018-07-19T13:12:49.264Z,4.73
2018-07-19T13:15:17.694Z,4.40
2018-07-19T13:17:46.120Z,4.87
2018-07-19T13:20:14.493Z,6.47
2018-07-19T13:22:42.860Z,8.27
2018-07-19T13:25:11.251Z,5.43
2018-07-19T13:27:39.636Z,5.47
2018-07-19T13:30:08.016Z,5.33
2018-07-19T13:32:36.466Z,6.20
2018-07-19T13:35:05.345Z,5.10
2018-07-19T13:37:33.546Z,5.27
2018-07-19T13:40:02.204Z,5.27
2018-07-19T13:42:30.606Z,11.70
2018-07-19T13:44:58.982Z,5.00
2018-07-19T13:47:27.379Z,5.37
2018-07-19T13:49:55.778Z,5.40
2018-07-19T13:52:35.476Z,4.77
2018-07-19T13:55:03.836Z,4.90
2018-07-19T13:57:32.200Z,5.23
2018-07-19T14:00:00.657Z,4.73
2018-07-19T14:02:29.041Z,5.03
2018-07-19T14:04:57.449Z,4.90
2018-07-19T14:07:25.870Z,4.87
2018-07-19T14:09:54.269Z,4.77
2018-07-19T14:12:22.665Z,4.63
2018-07-19T14:14:51.036Z,5.53
2018-07-19T14:17:19.448Z,5.37
2018-07-19T14:19:47.798Z,4.77
2018-07-19T14:22:16.287Z,4.73
2018-07-19T14:24:44.689Z,7.23
2018-07-19T14:27:13.086Z,6.20
2018-07-19T14:29:41.433Z,5.10
2018-07-19T14:32:10.039Z,6.30
2018-07-19T14:34:38.429Z,4.60
2018-07-19T14:37:06.805Z,4.90
2018-07-19T14:39:35.205Z,5.70
2018-07-19T14:42:03.593Z,4.50
2018-07-19T14:44:31.964Z,4.67
2018-07-19T14:47:00.477Z,4.30
2018-07-19T14:49:28.848Z,6.60
2018-07-19T14:51:57.264Z,4.37
2018-07-19T14:54:25.631Z,4.57
2018-07-19T14:56:53.985Z,5.07
2018-07-19T14:59:22.483Z,5.60
2018-07-19T15:01:50.837Z,4.90
2018-07-19T15:04:19.217Z,4.73
2018-07-19T15:06:47.603Z,5.63
2018-07-19T15:09:15.996Z,4.17
2018-07-19T15:11:44.398Z,4.50
2018-07-19T15:14:12.705Z,4.07
2018-07-19T15:16:41.103Z,5.37
2018-07-19T15:19:09.460Z,4.13
2018-07-19T15:21:37.872Z,5.20
2018-07-19T15:24:06.390Z,4.80
2018-07-19T15:26:34.718Z,4.53
2018-07-19T15:29:03.089Z,5.20
2018-07-19T15:31:31.443Z,4.70
2018-07-19T15:33:59.889Z,4.90
2018-07-19T15:36:28.272Z,4.60
2018-07-19T15:38:56.583Z,8.70
2018-07-19T15:41:24.933Z,4.63
2018-07-19T15:43:53.293Z,4.70
2018-07-19T15:46:21.670Z,4.87
2018-07-19T15:48:50.085Z,5.20
2018-07-19T15:51:18.469Z,5.00
2018-07-19T15:53:46.893Z,4.70
2018-07-19T15:56:15.305Z,4.63
2018-07-19T15:58:43.701Z,4.43
2018-07-19T16:01:12.215Z,4.30
2018-07-19T16:03:41.296Z,5.03
2018-07-19T16:06:09.749Z,4.80
2018-07-19T16:08:38.129Z,5.10
2018-07-19T16:11:06.595Z,4.40
2018-07-19T16:13:34.966Z,5.20
2018-07-19T16:16:03.329Z,5.17
2018-07-19T16:18:31.747Z,7.80
2018-07-19T16:21:00.441Z,5.30
2018-07-19T16:23:29.656Z,6.03
2018-07-19T16:25:58.085Z,6.47
2018-07-19T16:28:26.519Z,5.53
2018-07-19T16:30:54.975Z,5.20
2018-07-19T16:33:23.527Z,4.63
2018-07-19T16:35:51.930Z,4.80
2018-07-19T16:38:20.341Z,5.73
2018-07-19T16:40:49.107Z,5.63
2018-07-19T16:43:17.563Z,5.63
2018-07-19T16:45:46.477Z,5.43
2018-07-19T16:48:14.869Z,5.10
2018-07-19T16:50:43.306Z,6.40
2018-07-19T16:53:11.695Z,6.23
2018-07-19T16:55:40.139Z,6.23
2018-07-19T16:58:08.487Z,7.20
2018-07-19T17:00:36.826Z,6.17
2018-07-19T17:03:05.206Z,6.73
2018-07-19T17:05:33.581Z,7.63
2018-07-19T17:08:01.990Z,6.23
2018-07-19T17:10:30.345Z,9.97
2018-07-19T17:12:58.718Z,7.30
2018-07-19T17:15:27.187Z,6.90
2018-07-19T17:17:55.567Z,6.70
2018-07-19T17:20:23.974Z,6.80
2018-07-19T17:22:52.339Z,6.83
2018-07-19T17:25:21.035Z,6.70
2018-07-19T17:27:49.412Z,6.33
2018-07-19T17:30:17.798Z,9.20
2018-07-19T17:32:46.214Z,7.37
2018-07-19T17:35:14.629Z,9.07
2018-07-19T17:37:43.079Z,9.20
2018-07-19T17:40:11.656Z,12.83
2018-07-19T17:42:40.023Z,11.63
2018-07-19T17:45:08.497Z,14.87
2018-07-19T17:47:36.876Z,7.70
2018-07-19T17:50:05.360Z,8.60
2018-07-19T17:52:33.745Z,8.40
2018-07-19T17:55:02.107Z,11.87
2018-07-19T17:57:30.482Z,10.63
2018-07-19T17:59:58.827Z,13.60
2018-07-19T18:02:27.182Z,11.17
2018-07-19T18:04:55.593Z,10.43
2018-07-19T18:07:23.937Z,14.70
2018-07-19T18:09:52.342Z,9.67
2018-07-19T18:12:20.703Z,23.83
2018-07-19T18:14:49.054Z,13.80
2018-07-19T18:17:17.457Z,9.00
2018-07-19T18:19:45.786Z,8.80
2018-07-19T18:22:13.864Z,9.80
2018-07-19T18:24:42.206Z,9.07
2018-07-19T18:27:10.537Z,7.90
2018-07-19T18:29:38.872Z,6.90
2018-07-19T18:32:07.287Z,7.80
2018-07-19T18:34:35.410Z,9.13
2018-07-19T18:37:03.833Z,7.57
2018-07-19T18:39:32.257Z,7.97
2018-07-19T18:42:00.699Z,10.70
2018-07-19T18:44:29.064Z,7.63
2018-07-19T18:46:57.480Z,9.80
2018-07-19T18:49:25.892Z,6.87
2018-07-19T18:51:54.275Z,8.40
2018-07-19T18:54:22.644Z,8.30
2018-07-19T18:56:51.070Z,10.23
2018-07-19T18:59:19.497Z,7.90
2018-07-19T19:01:47.595Z,8.10
2018-07-19T19:04:15.949Z,9.77
2018-07-19T19:06:44.465Z,7.07
2018-07-19T19:09:12.798Z,8.63
2018-07-19T19:11:41.239Z,12.90
2018-07-19T19:14:09.812Z,10.27
2018-07-19T19:16:38.188Z,7.20
2018-07-19T19:19:06.974Z,7.80
2018-07-19T19:21:35.456Z,7.83
2018-07-19T19:24:03.890Z,6.37
2018-07-19T19:26:32.065Z,7.30
2018-07-19T19:29:00.647Z,7.70
2018-07-19T19:31:29.225Z,6.97
2018-07-19T19:33:57.653Z,11.13
2018-07-19T19:36:26.097Z,9.13
2018-07-19T19:38:54.502Z,9.70
2018-07-19T19:41:22.840Z,7.47
2018-07-19T19:43:51.255Z,10.23
2018-07-19T19:46:19.833Z,8.43
2018-07-19T19:48:48.241Z,6.87
2018-07-19T19:51:16.629Z,7.33
2018-07-19T19:53:44.995Z,15.53
2018-07-19T19:56:13.407Z,9.00
2018-07-19T19:58:41.868Z,9.60
2018-07-19T20:01:10.279Z,11.70
2018-07-19T20:03:38.642Z,10.90
2018-07-19T20:06:07.000Z,13.40
2018-07-19T20:08:35.450Z,11.40
2018-07-19T20:11:03.795Z,13.13
2018-07-19T20:13:32.238Z,9.07
2018-07-19T20:16:00.701Z,13.70
2018-07-19T20:18:29.308Z,9.07
2018-07-19T20:20:58.025Z,14.03
2018-07-19T20:23:26.788Z,11.00
2018-07-19T20:25:55.459Z,7.13
2018-07-19T20:28:23.920Z,11.93
2018-07-19T20:30:52.393Z,13.83
2018-07-19T20:33:20.834Z,11.07
2018-07-19T20:35:49.174Z,10.47
2018-07-19T20:38:17.604Z,8.57
2018-07-19T20:40:46.007Z,20.73
2018-07-19T20:43:14.359Z,7.90
2018-07-19T20:45:42.767Z,8.90
2018-07-19T20:48:11.099Z,8.57
2018-07-19T20:50:39.555Z,12.57
2018-07-19T20:53:08.006Z,8.43
2018-07-19T20:55:36.383Z,10.60
2018-07-19T20:58:04.787Z,15.20
2018-07-19T21:00:33.174Z,10.03
2018-07-19T21:03:01.515Z,10.70
2018-07-19T21:05:29.872Z,10.97
2018-07-19T21:07:58.223Z,9.40
2018-07-19T21:10:26.604Z,8.80
2018-07-19T21:12:54.995Z,11.50
2018-07-19T21:15:23.353Z,9.73
2018-07-19T21:17:51.717Z,11.13
2018-07-19T21:20:19.834Z,9.13
2018-07-19T21:22:48.227Z,9.53
2018-07-19T21:25:16.585Z,8.67
2018-07-19T21:27:44.961Z,8.20
2018-07-19T21:30:13.316Z,7.43
2018-07-19T21:32:41.378Z,9.10
2018-07-19T21:35:09.476Z,10.60
2018-07-19T21:37:37.859Z,8.73
2018-07-19T21:40:06.467Z,9.00
2018-07-19T21:42:34.812Z,8.13
2018-07-19T21:45:03.144Z,7.60
2018-07-19T21:47:31.500Z,11.67
2018-07-19T21:49:59.881Z,7.77
2018-07-19T21:52:28.241Z,10.10
2018-07-19T21:54:56.573Z,8.37
2018-07-19T21:57:24.924Z,10.03
2018-07-19T21:59:53.313Z,12.40
2018-07-19T22:02:21.667Z,10.00
2018-07-19T22:04:50.053Z,14.60
2018-07-19T22:07:18.443Z,15.07
2018-07-19T22:09:46.772Z,13.70
2018-07-19T22:12:15.103Z,15.63
2018-07-19T22:14:43.451Z,11.07
2018-07-19T22:17:11.916Z,9.80
2018-07-19T22:19:40.320Z,10.07
2018-07-19T22:22:08.664Z,10.93
2018-07-19T22:24:37.024Z,10.60
2018-07-19T22:27:05.357Z,10.20
2018-07-19T22:29:33.730Z,10.70
2018-07-19T22:32:02.205Z,12.97
2018-07-19T22:34:30.640Z,13.47
2018-07-19T22:36:59.010Z,11.10
2018-07-19T22:39:27.367Z,13.97
2018-07-19T22:41:55.712Z,10.73
2018-07-19T22:44:24.057Z,10.90
2018-07-19T22:46:52.113Z,11.77
2018-07-19T22:49:20.243Z,12.70
2018-07-19T22:51:48.589Z,12.90
2018-07-19T22:54:17.013Z,12.10
2018-07-19T22:56:45.329Z,13.33
2018-07-19T22:59:13.711Z,12.27
2018-07-19T23:01:42.080Z,11.30
2018-07-19T23:04:10.401Z,12.27
2018-07-19T23:06:38.744Z,10.23
2018-07-19T23:09:07.704Z,13.80
2018-07-19T23:11:36.088Z,11.77
2018-07-19T23:14:04.515Z,11.73
2018-07-19T23:16:32.875Z,10.60
2018-07-19T23:19:01.231Z,11.83
2018-07-19T23:21:29.582Z,12.07
2018-07-19T23:23:57.939Z,12.27
2018-07-19T23:26:26.404Z,10.70
2018-07-19T23:28:54.804Z,11.83
2018-07-19T23:31:23.186Z,10.60
2018-07-19T23:33:51.557Z,14.37
2018-07-19T23:36:23.313Z,12.63
2018-07-19T23:38:54.714Z,11.53
2018-07-19T23:41:32.393Z,12.03
2018-07-19T23:44:04.817Z,15.67
2018-07-19T23:46:39.117Z,13.93
2018-07-19T23:49:08.249Z,11.53
2018-07-19T23:51:37.998Z,13.40
2018-07-19T23:54:06.398Z,13.20
2018-07-19T23:56:35.101Z,15.17
2018-07-19T23:59:03.746Z,11.10
